Topping, Virginia
Current Conditions -  °F | °C
As of 2:55 AM on Tuesday 21 Oct 2014 (Local Time) from KW75 Reporting Station
Overcast Overcast  
Wind Chill: 58°   Ceiling: 9500
Heat Index: 58°   Visibility: 10mi
Dew Point: 52°   Wind: 5mph
Humidity: 81%   Direction: 210°SSW
Pressure: 29.92"   Gusts: NA
Location:  37.59°N, 76.47°W
Report Text: KW75 210655Z AUTO 21004KT 10SM SCT080 OVC095 15/11 A2992 RMK AO1 T01450113
Loading
Personal Weather Stations






























Interactive Weather Map
Tropical Storm Tracking
New forecast layout! Learn more

10-Day Weather Forecast

Advertisements
Track Severe Weather on mobile